createdAt,value
2022-12-04T00:01:32.280Z,66.47
2022-12-04T00:06:33.951Z,64.63
2022-12-04T00:11:35.692Z,66.47
2022-12-04T00:16:37.166Z,65.75
2022-12-04T00:21:38.790Z,63.85
2022-12-04T00:26:40.242Z,59.55
2022-12-04T00:31:41.711Z,57.47
2022-12-04T00:36:43.660Z,71.97
2022-12-04T00:41:45.157Z,66.28
2022-12-04T00:46:46.635Z,65.63
2022-12-04T00:51:48.078Z,56.35
2022-12-04T00:56:49.447Z,68.07
2022-12-04T01:01:50.934Z,64.78
2022-12-04T01:06:52.490Z,68.75
2022-12-04T01:11:54.043Z,66.20
2022-12-04T01:16:55.685Z,62.78
2022-12-04T01:21:57.180Z,65.82
2022-12-04T01:26:58.715Z,65.70
2022-12-04T01:32:00.253Z,64.72
2022-12-04T01:37:01.706Z,69.57
2022-12-04T01:42:04.338Z,63.30
2022-12-04T01:47:05.740Z,71.35
2022-12-04T01:52:11.538Z,60.08
2022-12-04T01:57:22.119Z,68.78
2022-12-04T02:02:29.741Z,63.83
2022-12-04T02:07:32.025Z,63.83
2022-12-04T02:12:40.778Z,70.57
2022-12-04T02:18:12.954Z,72.60
2022-12-04T02:23:36.331Z,66.03
2022-12-04T02:28:52.409Z,59.30
2022-12-04T02:34:37.848Z,69.90
2022-12-04T02:40:20.980Z,73.00
2022-12-04T02:45:29.823Z,58.45
2022-12-04T02:50:36.574Z,67.03
2022-12-04T02:55:42.467Z,65.25
2022-12-04T03:00:47.199Z,63.72
2022-12-04T03:06:02.604Z,70.82
2022-12-04T03:11:04.667Z,58.65
2022-12-04T03:16:12.644Z,62.00
2022-12-04T03:21:21.777Z,62.17
2022-12-04T03:26:32.453Z,68.93
2022-12-04T03:31:47.848Z,66.80
2022-12-04T03:36:54.507Z,60.70
2022-12-04T03:42:01.713Z,66.32
2022-12-04T03:47:08.529Z,65.78
2022-12-04T03:52:21.753Z,64.60
2022-12-04T03:57:30.083Z,68.95
2022-12-04T04:02:37.674Z,68.57
2022-12-04T04:07:47.855Z,68.60
2022-12-04T04:13:32.145Z,71.15
2022-12-04T04:18:51.813Z,69.47
2022-12-04T04:24:12.107Z,62.88
2022-12-04T04:29:13.830Z,68.32
2022-12-04T04:34:50.499Z,65.85
2022-12-04T04:40:06.892Z,60.05
2022-12-04T04:45:23.285Z,58.67
2022-12-04T04:50:25.087Z,62.58
2022-12-04T04:55:26.842Z,62.80
2022-12-04T05:00:28.244Z,56.15
2022-12-04T05:05:29.702Z,70.38
2022-12-04T05:10:31.049Z,64.68
2022-12-04T05:15:32.576Z,62.88
2022-12-04T05:20:34.865Z,65.80
2022-12-04T05:25:36.330Z,74.90
2022-12-04T05:30:37.950Z,61.90
2022-12-04T05:35:39.383Z,60.95
2022-12-04T05:40:40.782Z,65.82
2022-12-04T05:45:42.157Z,63.17
2022-12-04T05:50:43.570Z,59.58
2022-12-04T05:55:45.069Z,64.60
2022-12-04T06:00:46.590Z,63.92
2022-12-04T06:05:48.047Z,65.68
2022-12-04T06:10:49.443Z,57.13
2022-12-04T06:15:51.016Z,58.75
2022-12-04T06:20:52.642Z,60.78
2022-12-04T06:25:56.267Z,64.85
2022-12-04T06:31:04.014Z,61.20
2022-12-04T06:36:09.107Z,58.35
2022-12-04T06:41:13.268Z,62.90
2022-12-04T06:46:18.866Z,58.67
2022-12-04T06:51:23.096Z,56.17
2022-12-04T06:56:28.090Z,67.45
2022-12-04T07:01:31.821Z,54.80
2022-12-04T07:06:36.050Z,62.42
2022-12-04T07:11:39.136Z,54.95
2022-12-04T07:16:42.481Z,56.60
2022-12-04T07:21:44.491Z,65.95
2022-12-04T07:26:46.778Z,63.65
2022-12-04T07:31:48.309Z,54.13
2022-12-04T07:36:49.752Z,55.50
2022-12-04T07:41:51.219Z,55.75
2022-12-04T07:46:52.646Z,55.40
2022-12-04T07:51:54.120Z,53.10
2022-12-04T07:56:55.878Z,56.90
2022-12-04T08:01:57.504Z,59.10
2022-12-04T08:06:59.146Z,58.88
2022-12-04T08:12:00.560Z,60.67
2022-12-04T08:17:01.986Z,54.83
2022-12-04T08:22:03.420Z,49.83
2022-12-04T08:27:04.904Z,51.15
2022-12-04T08:32:07.200Z,55.47
2022-12-04T08:37:08.603Z,51.25
2022-12-04T08:42:10.061Z,48.83
2022-12-04T08:47:11.458Z,44.85
2022-12-04T08:52:12.902Z,49.70
2022-12-04T08:57:14.272Z,54.38
2022-12-04T09:02:16.683Z,56.88
2022-12-04T09:07:18.102Z,46.45
2022-12-04T09:12:19.584Z,55.20
2022-12-04T09:17:20.991Z,47.97
2022-12-04T09:22:22.487Z,44.20
2022-12-04T09:27:23.905Z,56.03
2022-12-04T09:32:25.261Z,54.45
2022-12-04T09:37:26.654Z,49.03
2022-12-04T09:42:44.127Z,54.70
2022-12-04T09:47:50.418Z,46.63
2022-12-04T09:53:11.325Z,48.03
2022-12-04T09:58:17.729Z,42.13
2022-12-04T10:03:22.119Z,50.15
2022-12-04T10:08:31.367Z,33.70
2022-12-04T10:13:41.958Z,43.35
2022-12-04T10:18:46.378Z,38.08
2022-12-04T10:24:05.018Z,34.05
2022-12-04T10:29:12.286Z,30.92
2022-12-04T10:34:19.780Z,29.45
2022-12-04T10:39:34.487Z,36.35
2022-12-04T10:44:36.062Z,27.52
2022-12-04T10:49:38.322Z,31.45
2022-12-04T10:54:57.420Z,29.70
2022-12-04T11:00:00.278Z,25.40
2022-12-04T11:05:22.207Z,28.83
2022-12-04T11:10:39.401Z,25.75
2022-12-04T11:16:07.610Z,30.50
2022-12-04T11:21:33.042Z,23.00
2022-12-04T11:26:40.067Z,28.58
2022-12-04T11:36:43.956Z,24.98
2022-12-04T11:41:46.628Z,31.27
2022-12-04T11:46:53.928Z,26.10
2022-12-04T11:52:09.644Z,25.65
2022-12-04T11:57:24.313Z,26.25
2022-12-04T12:02:32.765Z,24.50
2022-12-04T12:08:12.581Z,26.75
2022-12-04T12:13:29.288Z,26.55
2022-12-04T12:18:56.456Z,27.85
2022-12-04T12:24:24.744Z,27.58
2022-12-04T12:29:43.918Z,26.73
2022-12-04T12:34:51.353Z,25.55
2022-12-04T12:40:10.992Z,22.70
2022-12-04T12:45:31.625Z,28.90
2022-12-04T12:50:44.426Z,24.85
2022-12-04T12:55:53.831Z,24.50
2022-12-04T13:01:15.443Z,26.65
2022-12-04T13:06:34.651Z,28.10
2022-12-04T13:11:48.450Z,22.42
2022-12-04T13:17:01.350Z,24.67
2022-12-04T13:22:40.667Z,29.55
2022-12-04T13:28:11.645Z,20.67
2022-12-04T13:33:50.336Z,20.90
2022-12-04T13:39:18.612Z,23.40
2022-12-04T13:44:22.151Z,30.08
2022-12-04T13:49:26.062Z,20.38
2022-12-04T13:54:33.823Z,22.77
2022-12-04T13:59:38.865Z,25.13
2022-12-04T14:05:13.316Z,35.15
2022-12-04T14:10:14.718Z,27.35
2022-12-04T14:15:25.669Z,25.10
2022-12-04T14:20:30.660Z,30.00
2022-12-04T14:25:37.982Z,27.33
2022-12-04T14:30:40.517Z,34.72
2022-12-04T14:35:53.079Z,33.17
2022-12-04T14:40:57.977Z,29.25
2022-12-04T14:46:23.450Z,33.60
2022-12-04T14:51:37.804Z,37.75
2022-12-04T14:57:09.116Z,33.67
2022-12-04T15:02:17.643Z,30.35
2022-12-04T15:07:28.395Z,30.20
2022-12-04T15:12:35.672Z,32.70
2022-12-04T15:17:37.103Z,37.22
2022-12-04T15:22:38.836Z,37.88
2022-12-04T15:27:40.753Z,41.67
2022-12-04T15:32:42.449Z,37.35
2022-12-04T15:37:43.975Z,44.60
2022-12-04T15:42:45.368Z,45.22
2022-12-04T15:47:46.812Z,41.25
2022-12-04T15:53:12.496Z,40.47
2022-12-04T15:58:22.649Z,46.58
2022-12-04T16:03:30.694Z,43.33
2022-12-04T16:08:38.574Z,44.88
2022-12-04T16:13:39.992Z,43.70
2022-12-04T16:18:43.236Z,34.70
2022-12-04T16:23:45.364Z,43.38
2022-12-04T16:28:47.592Z,42.92
2022-12-04T16:33:49.236Z,46.92
2022-12-04T16:38:51.417Z,44.92
2022-12-04T16:43:55.963Z,48.70
2022-12-04T16:48:58.750Z,44.17
2022-12-04T16:54:01.869Z,38.28
2022-12-04T16:59:06.524Z,48.67
2022-12-04T17:04:10.608Z,45.75
2022-12-04T17:09:12.712Z,44.05
2022-12-04T17:14:15.138Z,46.53
2022-12-04T17:19:17.101Z,37.67
2022-12-04T17:24:18.520Z,39.53
2022-12-04T17:29:22.434Z,47.90
2022-12-04T17:34:23.939Z,67.25
2022-12-04T17:44:51.585Z,47.38
2022-12-04T17:49:53.123Z,45.17
2022-12-04T17:54:55.339Z,45.55
2022-12-04T17:59:57.005Z,42.33
2022-12-04T18:04:58.877Z,40.70
2022-12-04T18:10:00.773Z,44.55
2022-12-04T18:15:02.475Z,44.05
2022-12-04T18:20:05.387Z,37.45
2022-12-04T18:25:08.474Z,36.03
2022-12-04T18:30:10.181Z,40.05
2022-12-04T18:35:11.644Z,37.85
2022-12-04T18:40:13.412Z,33.38
2022-12-04T18:45:15.016Z,39.40
2022-12-04T18:50:17.401Z,36.00
2022-12-04T18:55:18.867Z,33.83
2022-12-04T19:00:20.669Z,32.92
2022-12-04T19:05:22.197Z,38.45
2022-12-04T19:10:24.289Z,40.65
2022-12-04T19:15:26.098Z,43.88
2022-12-04T19:20:29.220Z,44.35
2022-12-04T19:25:30.629Z,43.92
2022-12-04T19:30:33.313Z,50.85
2022-12-04T19:35:37.503Z,58.30
2022-12-04T19:40:40.704Z,41.72
2022-12-04T19:45:52.050Z,51.20
2022-12-04T19:50:53.593Z,45.28
2022-12-04T19:55:58.903Z,42.80
2022-12-04T20:01:06.026Z,42.05
2022-12-04T20:06:21.127Z,47.45
2022-12-04T20:11:23.314Z,50.35
2022-12-04T20:16:31.464Z,44.38
2022-12-04T20:21:35.037Z,48.13
2022-12-04T20:26:41.596Z,46.25
2022-12-04T20:31:49.427Z,54.97
2022-12-04T20:36:50.895Z,44.28
2022-12-04T20:41:52.351Z,50.67
2022-12-04T20:46:53.879Z,48.90
2022-12-04T20:51:55.536Z,45.08
2022-12-04T20:56:57.466Z,50.97
2022-12-04T21:02:02.593Z,50.63
2022-12-04T21:07:04.278Z,48.75
2022-12-04T21:12:29.084Z,49.25
2022-12-04T21:17:32.986Z,55.40
2022-12-04T21:22:34.597Z,54.10
2022-12-04T21:27:36.157Z,59.85
2022-12-04T21:32:37.835Z,53.38
2022-12-04T21:37:39.353Z,54.00
2022-12-04T21:42:44.145Z,53.75
2022-12-04T21:47:45.656Z,53.22
2022-12-04T21:52:48.673Z,55.40
2022-12-04T21:57:50.535Z,57.50
2022-12-04T22:02:52.258Z,49.05
2022-12-04T22:07:56.529Z,49.33
2022-12-04T22:12:58.000Z,53.80
2022-12-04T22:17:59.454Z,49.40
2022-12-04T22:23:01.107Z,41.15
2022-12-04T22:28:04.990Z,47.70
2022-12-04T22:33:06.901Z,47.03
2022-12-04T22:38:11.622Z,46.95
2022-12-04T22:43:18.459Z,55.30
2022-12-04T22:48:19.908Z,50.50
2022-12-04T22:53:21.570Z,49.33
2022-12-04T22:58:28.380Z,48.75
2022-12-04T23:03:29.934Z,50.38
2022-12-04T23:08:31.906Z,47.55
2022-12-04T23:13:33.487Z,49.67
2022-12-04T23:18:35.773Z,51.13
2022-12-04T23:23:40.455Z,56.95
2022-12-04T23:28:46.879Z,53.92
2022-12-04T23:33:53.738Z,57.20
2022-12-04T23:39:02.495Z,51.35
2022-12-04T23:44:05.332Z,60.92
2022-12-04T23:49:07.310Z,54.90
2022-12-04T23:54:08.946Z,66.80
2022-12-04T23:59:18.131Z,62.42
